x

8452951 - Potter Cove, Prudence Island, Ri (ptcr1) Weather Station

3:54 - Tue 28th Feb 2017 All times are EST. -5 hours from GMT.

  • Wind
    2mph, 3mph gusts
  • Air Temp 41°f
  • Sea Pressure 1029.9mb
  • 8452951 - Potter Cove, Prudence Island, Ri
  • 8452951 - Potter Cove, Prudence Island, Ri

More Historic Weather Station data

Upgrade to MSW Pro to gain access to the past 30 days of data for over 8000 Wavebouys and Weather Stations around the globe.

Join Pro

Comparision Forecast

View Surf forecast
   
mar. 02/28 3:54 2 3 mph 1029.9mb 41f
3:48 5 7 mph 1030mb 41f
3:42 3 5 mph 1030mb 41f
3:36 3 6 mph 1030.1mb 41f
3:30 3 7 mph 1030.1mb 41f
3:24 5 7 mph 1030.1mb 41f
3:18 6 8 mph 1030.2mb 41f
3:12 5 8 mph 1030.2mb 41f
3:06 6 8 mph 1030.2mb 40f
3:00 6 8 mph 1030.2mb 40f
2:54 6 8 mph 1030.2mb 40f
2:48 6 9 mph 1030.3mb 40f
2:42 5 8 mph 1030.2mb 40f
2:36 5 7 mph 1030.2mb 40f
2:30 5 7 mph 1030.2mb 41f
2:24 3 6 mph 1030.2mb 40f
2:18 2 3 mph 1030.3mb 40f
2:12 2 3 mph 1030.3mb 40f
2:06 2
mph
1030.2mb 40f
2:00 2 5 mph 1030.1mb 40f
1:54 2 3 mph 1030.1mb 40f
1:48 3 5 mph 1030.2mb -
1:42 1 2 mph 1030.2mb -
1:36 3 5 mph 1030.2mb -
1:30 2 3 mph 1030.4mb 40f
1:24 2 3 mph 1030.4mb 40f
1:18 2
mph
- -
1:12 2 5 mph 1030.4mb 40f
1:06 3 5 mph 1030.3mb 40f
1:00 2 5 mph 1030.2mb 40f
12:54 2 5 mph 1030.2mb 40f
12:48 3 6 mph 1030.2mb 40f
12:42 3 7 mph 1030.2mb 40f
12:36 3 6 mph 1030.1mb 40f
12:30 3 7 mph 1030.2mb 40f
12:24 3 7 mph 1030.2mb 40f
12:18 3 7 mph 1030.2mb 41f
12:12 5 6 mph 1030.1mb 40f
12:06 3 6 mph 1030.1mb 40f
12:00 3 6 mph 1030.1mb 40f
lun. 02/27 11:54 3 5 mph 1030.1mb 40f
11:48 3 6 mph 1030.1mb 40f
11:42 5 8 mph 1030.1mb 40f
11:36 3 6 mph 1030.1mb 40f
11:30 5 7 mph 1030mb 41f
11:24 5 7 mph 1029.9mb 41f
11:18 5 7 mph 1029.8mb 41f
11:12 3 6 mph 1029.8mb 41f
11:06 5 7 mph 1029.8mb 40f
11:00 5 7 mph 1029.8mb 41f
10:54 3 5 mph 1029.8mb 41f
10:48 2 5 mph 1029.7mb 40f
10:42 3 5 mph 1029.7mb 41f
10:36 3 6 mph 1029.7mb 41f
10:30 3 5 mph 1029.7mb 41f
10:24 3 7 mph 1029.7mb 41f
10:18 3 6 mph - -
10:12 3 6 mph 1029.7mb 41f
10:06 5 7 mph 1029.7mb 41f
10:00 6 9 mph 1029.7mb 41f
9:54 7 10 mph 1029.6mb 42f
9:48 6 9 mph 1029.6mb 42f
9:42 6 10 mph 1029.6mb 42f
9:36 7 11 mph 1029.6mb 42f
9:30 7 13 mph 1029.7mb 42f
9:24 7 9 mph 1029.7mb 42f
9:18 7 10 mph 1029.7mb 42f
9:12 8 11 mph 1029.7mb 42f
9:06 8 11 mph 1029.8mb 42f
9:00 8 13 mph 1029.8mb 42f
8:54 8 11 mph 1029.8mb 42f
8:48 8 11 mph - -
8:42 9 13 mph 1029.9mb 42f
8:36 10 15 mph 1029.9mb 42f
8:30 9 14 mph 1029.8mb 42f
8:24 10 17 mph 1029.7mb 42f
8:18 11 18 mph 1029.6mb 42f
8:12 13 20 mph 1029.5mb 42f
8:06 10 15 mph 1029.6mb 42f
8:00 10 16 mph 1029.7mb 42f
7:54 9 14 mph 1029.8mb 42f
7:48 9 15 mph - -
7:42 10 15 mph 1029.9mb 43f
7:36 10 17 mph 1029.9mb 43f
7:30 11 18 mph 1029.9mb 43f
7:24 11 18 mph 1029.7mb 43f
7:18 13 17 mph 1029.7mb 43f
7:12 13 17 mph 1029.6mb 43f
7:06 14 18 mph 1029.6mb 43f
7:00 14 21 mph 1029.6mb 43f
6:54 14 21 mph 1029.6mb 43f
6:48 11 17 mph 1029.5mb -
6:42 13 20 mph 1029.5mb 43f
6:36 13 17 mph 1029.5mb 43f
6:30 11 17 mph 1029.5mb 43f
6:24 11 17 mph 1029.5mb 43f
6:18 10 16 mph 1029.4mb 44f
6:12 10 14 mph 1029.3mb 44f
6:06 13 22 mph 1029.2mb 44f
6:00 13 17 mph 1029.1mb 44f
5:54 11 17 mph 1028.9mb 44f
5:48 13 18 mph 1028.8mb -
5:42 13 21 mph 1028.8mb 44f
5:36 14 20 mph 1028.8mb 44f
5:30 13 18 mph 1028.7mb 44f
5:24 14 21 mph 1028.7mb 44f
5:18 14 22 mph 1028.5mb 44f
5:12 15 23 mph 1028.4mb 44f
5:06 13 20 mph 1028.4mb 45f
5:00 11 17 mph 1028.4mb 45f
4:54 8 15 mph 1028.5mb 45f
4:48 11 20 mph - -
4:42 13 18 mph 1028.4mb 45f
4:36 13 18 mph 1028.2mb 45f
4:30 15 22 mph 1028mb 45f
4:24 15 22 mph 1028mb 46f
4:18 14 21 mph 1028mb 46f
4:12 14 21 mph 1028.1mb 46f
4:06 11 16 mph 1028.3mb 46f
4:00 10 15 mph 1028.3mb 46f
3:54 10 16 mph 1028.2mb 46f
3:48 11 21 mph - -
3:42 10 18 mph 1028mb 46f
3:36 9 15 mph 1027.9mb 46f
3:30 11 17 mph 1027.8mb 46f
3:24 11 17 mph 1027.8mb 46f
3:18 10 17 mph 1027.7mb 46f
3:12 13 20 mph 1027.7mb 46f
3:06 11 17 mph 1027.5mb 47f
3:00 14 24 mph 1027.4mb 46f
2:54 16 24 mph 1027.3mb 47f
2:48 14 23 mph 1027.3mb 47f
2:42 14 24 mph 1027.4mb 47f
2:36 15 23 mph 1027.4mb 47f
2:30 14 23 mph 1027.4mb 47f
2:24 15 22 mph 1027.4mb 47f
2:18 14 21 mph - -
2:12 16 26 mph 1027.5mb 47f
2:06 14 22 mph 1027.6mb 47f
2:00 13 21 mph 1027.6mb 48f
1:54 14 23 mph 1027.6mb 48f
1:48 13 21 mph 1027.5mb 48f
1:42 10 17 mph 1027.5mb 48f
1:36 11 21 mph 1027.6mb 48f
1:30 16 23 mph 1027.7mb 48f
1:24 14 24 mph 1027.7mb 48f
1:18 13 21 mph 1027.7mb 48f
1:12 10 18 mph 1027.7mb 48f
1:06 10 15 mph 1027.8mb 48f
1:00 10 18 mph 1027.9mb 49f
12:54 10 17 mph 1028mb 48f
12:48 10 17 mph 1028.2mb 48f
12:42 14 22 mph 1028.2mb 48f
12:36 10 18 mph 1028.2mb 47f
12:30 10 17 mph 1028.2mb 48f
12:24 11 16 mph 1028.2mb 48f
12:18 9 16 mph 1028.2mb 47f
12:12 9 14 mph 1028.4mb 47f
12:06 9 14 mph 1028.5mb 47f
12:00 10 15 mph 1028.6mb 47f
11:54 10 16 mph 1028.6mb 46f
11:48 10 16 mph 1028.8mb 47f
11:42 10 17 mph 1028.9mb 47f
11:36 10 15 mph 1028.9mb 47f
11:30 9 16 mph 1028.9mb 47f
11:24 10 16 mph 1028.9mb 46f
11:18 8 13 mph 1029mb 46f
11:12 8 14 mph 1029.1mb 46f
11:06 8 16 mph 1029.1mb 46f
11:00 9 15 mph 1029.2mb 46f
10:54 8 14 mph 1029.3mb 46f
10:48 9 15 mph 1029.3mb 46f
10:42 11 16 mph 1029.3mb 47f
10:36 11 17 mph 1029.4mb 46f
10:30 11 17 mph 1029.4mb 46f
10:24 9 17 mph 1029.4mb 46f
10:18 9 14 mph 1029.4mb 46f
10:12 9 14 mph 1029.3mb 45f
10:06 10 14 mph 1029.2mb 45f
10:00 9 14 mph 1029.2mb 44f
9:54 10 15 mph 1029.2mb 43f
9:48 9 15 mph 1029.2mb 43f
9:42 10 16 mph 1029.3mb 43f
9:36 9 14 mph 1029.3mb 43f
9:30 9 14 mph 1029.4mb 42f
9:24 8 13 mph 1029.4mb 42f
9:18 10 15 mph 1029.4mb 41f
9:12 9 16 mph 1029.4mb 41f
9:06 7 13 mph 1029.4mb 41f
9:00 7 13 mph 1029.5mb 41f
8:54 9 16 mph 1029.5mb 41f
8:48 7 10 mph 1029.5mb 40f
8:42 9 14 mph 1029.5mb 40f
8:36 9 14 mph 1029.4mb 39f
8:30 7 14 mph 1029.4mb 39f
8:24 8 14 mph 1029.4mb 38f
8:18 9 14 mph - -
8:12 9 14 mph 1029.4mb 37f
8:06 8 14 mph 1029.3mb 37f
8:00 8 11 mph 1029.2mb 37f
7:54 6 9 mph 1029.1mb 36f
7:48 6 10 mph 1029.1mb 36f
7:42 6 8 mph 1029mb 36f
7:36 8 13 mph 1028.9mb 36f
7:30 7 10 mph 1028.8mb 35f
7:24 7 11 mph 1028.8mb 35f
7:18 8 13 mph 1028.7mb 35f
7:12 7 10 mph 1028.8mb 35f
7:06 7 13 mph 1028.6mb 35f
7:00 9 15 mph 1028.6mb 35f
6:54 8 11 mph 1028.7mb 35f
6:48 11 21 mph 1028.8mb 34f
6:42 8 13 mph 1028.9mb 34f
6:36 8 13 mph 1028.8mb 34f
6:30 8 14 mph 1028.6mb 34f
6:24 8 11 mph 1028.5mb 33f
6:18 7 11 mph 1028.4mb 33f
6:12 8 14 mph 1028.3mb 33f
6:06 9 15 mph 1028.2mb 33f
6:00 10 17 mph 1028.1mb 33f
5:54 11 17 mph 1028mb 33f
5:48 9 18 mph - -
5:42 9 17 mph 1027.8mb 34f
5:36 7 11 mph 1027.7mb 34f
5:30 9 15 mph 1027.6mb 33f
5:24 9 16 mph 1027.5mb 33f
5:18 8 13 mph 1027.5mb 33f
5:12 9 14 mph 1027.5mb 33f
5:06 8 13 mph 1027.4mb 33f
5:00 9 13 mph 1027.4mb 33f
4:54 8 11 mph 1027.3mb 33f
4:48 9 15 mph 1027.2mb 32f
4:42 7 13 mph 1027.2mb 33f
4:36 8 13 mph 1027.2mb 33f
4:30 8 11 mph 1027.1mb 33f
4:24 8 13 mph 1027mb 33f
4:18 8 13 mph 1026.9mb 33f
4:12 9 11 mph 1026.7mb 33f
4:06 8 11 mph 1026.6mb 33f
4:00 8 14 mph 1026.6mb 33f
3:54 7 10 mph 1026.6mb 33f
3:48 7 11 mph 1026.4mb 33f
3:42 8 13 mph 1026.4mb 33f
3:36 8 14 mph 1026.4mb 33f
3:30 9 14 mph 1026.3mb 33f
3:24 8 13 mph 1026.2mb 33f
3:18 9 14 mph 1026.2mb 33f
3:12 8 11 mph 1026.2mb 33f
3:06 8 14 mph 1026.3mb 33f
3:00 6 8 mph 1026.2mb 32f
2:54 6 10 mph 1026mb 32f
2:48 7 10 mph 1026mb 32f
2:42 7 10 mph 1026mb 32f
2:36 7 10 mph 1026mb 33f
2:30 8 13 mph 1026mb 33f
2:24 9 13 mph 1026mb 33f
2:18 9 16 mph 1026.1mb 33f
2:12 9 14 mph 1026mb 33f
2:06 7 10 mph 1026.1mb 33f
2:00 8 11 mph 1025.9mb 33f
1:54 7 10 mph 1025.9mb 32f
1:48 7 13 mph 1026mb 32f
1:42  -  mph 1025.9mb 32f
1:36  -  mph 1025.7mb 32f
1:30 6 10 mph 1025.8mb 32f
1:24 7 11 mph 1025.8mb 32f
1:18 6 10 mph 1025.6mb 32f
1:12 6 9 mph 1025.4mb 32f
1:06 6 9 mph 1025.3mb 32f
1:00 6 9 mph 1025.2mb 32f
12:54 6 9 mph 1025.1mb 32f
12:48 7 10 mph 1025mb 32f
12:42 7 10 mph 1025.1mb 33f
12:36 7 10 mph 1025mb 33f
12:30 6 9 mph 1024.9mb 33f
12:24 6 9 mph 1024.7mb 33f
12:18 6 8 mph 1024.6mb 32f
12:12 6 10 mph 1024.5mb 32f
12:06 5 8 mph 1024.4mb 32f
12:00 5 7 mph 1024.3mb 32f
dim. 02/26 11:54 5 8 mph 1024.3mb 32f
11:48 5 9 mph 1024.3mb 32f
11:42 5 7 mph 1024.2mb 32f
11:36 5 6 mph 1024mb 32f
11:30 3 6 mph 1023.9mb 32f
11:24 3 6 mph 1023.9mb 32f
11:18 6 8 mph 1023.8mb 32f
11:12 5 7 mph 1023.7mb 32f
11:06 5 7 mph 1023.6mb 33f
11:00 5 9 mph 1023.5mb 33f
10:54 6 8 mph 1023.6mb 33f
10:48 5 6 mph 1023.5mb 33f
10:42 7 10 mph 1023.5mb 33f
10:36 6 11 mph 1023.4mb 33f
10:30 6 9 mph 1023.3mb 33f
10:24 6 9 mph 1023.3mb 33f
10:18 6 10 mph 1023.2mb 34f
10:12 8 14 mph 1023.3mb 34f
10:06 7 14 mph 1023.3mb 34f
10:00 9 16 mph 1023.2mb 34f
9:54 9 15 mph 1023.1mb 34f
9:48 6 10 mph 1023mb 34f
9:42 6 11 mph 1023mb 34f
9:36 6 9 mph 1022.9mb 34f
9:30 7 10 mph 1022.9mb 34f
9:24 7 13 mph 1022.8mb 34f
9:18 6 11 mph 1022.7mb 34f
9:12 8 16 mph 1022.6mb 34f
9:06 10 16 mph 1022.6mb 35f
9:00 8 13 mph 1022.4mb 35f
8:54 9 17 mph 1022.3mb 35f
8:48 8 14 mph 1022.1mb 35f
8:42 8 17 mph 1022mb 35f
8:36 8 21 mph 1021.9mb 35f
8:30 7 16 mph 1021.8mb 35f
8:24 8 15 mph 1021.8mb 35f
8:18 10 17 mph - -
8:12 9 20 mph 1021.6mb 35f
8:06 9 20 mph 1021.4mb 35f
8:00 8 14 mph 1021.2mb 35f
7:54 11 18 mph 1021mb 35f
7:48 9 15 mph - -
7:42 9 18 mph 1020.7mb 35f
7:36 9 15 mph 1020.5mb 35f
7:30 7 14 mph 1020.5mb 35f
7:24 10 18 mph 1020.3mb 36f
7:18 10 22 mph 1020.2mb 36f
7:12 8 16 mph 1020.1mb 36f
7:06 7 15 mph 1020mb 36f
7:00 8 14 mph 1019.8mb 36f
6:54 8 15 mph 1019.6mb 36f
6:48 7 13 mph 1019.6mb -
6:42 11 21 mph 1019.4mb 36f
6:36 10 17 mph 1019.2mb 36f
6:30 9 20 mph 1019.1mb 36f
6:24 8 14 mph 1018.9mb 37f
6:18 11 24 mph - -
6:12 10 18 mph 1018.6mb 37f
6:06 10 21 mph 1018.5mb 37f
6:00 9 20 mph 1018.3mb 37f
5:54 10 18 mph 1018.2mb 37f
5:48 11 20 mph 1018mb 37f
5:42 11 22 mph 1017.8mb 37f
5:36 10 20 mph 1017.6mb 37f
5:30 11 20 mph 1017.5mb 38f
5:24 13 24 mph 1017.3mb 38f
5:18 10 21 mph - -
5:12 15 23 mph 1017mb 38f
5:06 10 20 mph 1016.8mb 38f
5:00 14 22 mph 1016.6mb 39f
4:54 11 20 mph 1016.6mb 39f
4:48 13 23 mph 1016.5mb 39f
4:42 14 24 mph 1016.3mb 39f
4:36 14 22 mph 1016mb 40f
4:30 11 24 mph 1015.9mb 40f
4:24 11 22 mph 1015.8mb 40f
4:18 9 17 mph 1015.6mb 40f
4:12 14 23 mph 1015.4mb 41f
4:06 15 24 mph 1015.1mb 40f
4:00 13 22 mph 1014.9mb 40f
3:54 13 22 mph 1014.8mb 41f
3:48 13 22 mph 1014.7mb 41f
3:42 11 23 mph 1014.6mb 41f
3:36 13 23 mph 1014.5mb 42f
3:30 14 21 mph 1014.5mb 42f
3:24 10 23 mph 1014.5mb 42f
3:18 14 21 mph 1014.2mb 42f
3:12 9 17 mph 1014.2mb 42f
3:06 11 22 mph 1014mb 43f
3:00 13 24 mph 1014mb 42f
2:54 9 17 mph 1013.8mb 42f
2:48 9 23 mph 1013.7mb 43f
2:42 10 18 mph 1013.6mb 42f
2:36 11 21 mph 1013.6mb 43f
2:30 10 21 mph 1013.6mb 43f
2:24 8 16 mph 1013.5mb 43f
2:18 10 21 mph 1013.4mb 43f
2:12 8 20 mph 1013.3mb 43f
2:06 10 22 mph 1013.3mb 43f
2:00 10 22 mph 1013.2mb 44f
1:54 10 22 mph 1013.2mb 43f
1:48 13 23 mph 1013.2mb 42f
1:42 13 21 mph 1013.2mb 43f
1:36 11 21 mph 1013.2mb 42f
1:30 9 22 mph 1013.2mb 42f
1:24 9 16 mph 1013.1mb 43f
1:18 9 17 mph 1013.1mb 42f
1:12 10 20 mph 1013mb 42f
1:06 9 20 mph 1013mb 41f
1:00 7 15 mph 1013mb 41f
12:54 9 17 mph 1012.9mb 43f
12:48 9 18 mph 1012.9mb 43f
12:42 10 21 mph 1012.9mb 42f
12:36 14 22 mph 1012.8mb 42f
12:30 11 18 mph 1012.8mb 42f
12:24 7 15 mph 1012.7mb 42f
12:18 9 17 mph 1012.6mb 42f
12:12 10 20 mph 1012.6mb 42f
12:06 8 18 mph 1012.5mb 41f
12:00 11 21 mph 1012.5mb 41f
11:54 9 21 mph 1012.5mb 40f
11:48 10 23 mph 1012.5mb 42f
11:42 13 21 mph 1012.5mb 41f
11:36 16 24 mph 1012.4mb 41f
11:30 11 22 mph 1012.3mb 41f
11:24 9 17 mph 1012.3mb 41f
11:18 9 18 mph 1012.2mb 42f
11:12 13 22 mph 1012.1mb 42f
11:06 10 20 mph 1012mb 42f
11:00 9 20 mph 1012mb 41f
10:54 11 21 mph 1012mb 42f
10:48 11 21 mph 1011.9mb 40f
10:42 9 18 mph 1011.9mb 41f
10:36 10 22 mph 1012mb 42f
10:30 11 28 mph 1011.9mb 41f
10:24 9 18 mph 1011.9mb 41f
10:18 14 24 mph 1011.8mb 40f
10:12 8 18 mph 1011.7mb 39f
10:06 10 20 mph 1011.6mb 41f
10:00 10 26 mph 1011.6mb 39f
9:54 13 25 mph 1011.7mb 40f
9:48 10 22 mph - -
9:42 13 23 mph 1011.5mb 40f
9:36 15 25 mph 1011.4mb 39f
9:30 13 28 mph 1011.4mb 39f
9:24 14 23 mph 1011.4mb 40f
9:18 13 32 mph 1011.4mb 39f
9:12 14 24 mph 1011.3mb 39f
9:06 11 23 mph 1011.2mb 40f
9:00 14 24 mph 1011.1mb 40f
8:54 16 25 mph 1011mb 39f
8:48 14 23 mph - -
8:42 11 22 mph 1010.5mb 39f
8:36 13 23 mph 1010.5mb 39f
8:30 10 24 mph 1010.4mb 38f
8:24 8 22 mph 1010.3mb 39f
8:18 10 16 mph 1010.3mb 39f
8:12 7 16 mph 1010.3mb 39f
8:06 9 23 mph 1010.4mb 39f
8:00 10 28 mph 1010.4mb 38f
7:54 9 17 mph 1010.2mb 38f
7:48 13 22 mph 1010.2mb 38f
7:42 15 24 mph 1010.1mb 37f
7:36 11 20 mph 1009.9mb 37f
7:30 15 26 mph 1009.8mb 37f
7:24 13 23 mph 1009.7mb 37f
7:18 10 21 mph 1009.6mb 37f
7:12 16 29 mph 1009.6mb 37f
7:06 16 29 mph 1009.3mb 37f
7:00 14 33 mph 1009.1mb 37f
6:54 14 24 mph 1008.9mb 37f
6:48 10 20 mph 1008.5mb 37f
6:42 10 18 mph 1008.5mb 37f
6:36 11 22 mph 1008.4mb 37f
6:30 13 25 mph 1008.2mb 37f
6:24 14 25 mph 1008mb 37f
6:18 14 22 mph 1007.8mb 37f
6:12 13 22 mph 1007.7mb 37f
6:06 9 24 mph 1007.6mb 37f
6:00 10 20 mph 1007.5mb 37f
5:54 9 18 mph 1007.4mb 37f
5:48 10 25 mph 1007.2mb 37f
5:42 11 24 mph 1007.2mb 38f
5:36 11 17 mph 1007.1mb 38f
5:30 10 22 mph 1006.9mb 38f
5:24 11 22 mph 1006.9mb 38f
5:18 8 18 mph - -
5:12 9 25 mph 1006.6mb 38f
5:06 10 22 mph 1006.4mb 38f
5:00 10 22 mph 1006.3mb 38f
4:54 14 23 mph 1006.1mb 38f
4:48 13 24 mph 1006mb 39f
4:42 10 18 mph 1005.8mb 39f
4:36 9 20 mph 1005.6mb 39f
4:30 9 22 mph 1005.5mb 39f
4:24 11 21 mph 1005.4mb 40f
4:18 14 32 mph 1005.1mb 40f
4:12 14 24 mph 1005.1mb 40f
4:06 10 20 mph 1004.9mb 40f
4:00 11 22 mph 1004.6mb 40f
3:54 11 23 mph 1004.5mb 40f
3:48 10 18 mph 1004.4mb 41f
3:42 13 23 mph 1004.3mb 41f
3:36 13 23 mph 1004.1mb 41f
3:30 13 23 mph 1004.1mb 41f
3:24 11 22 mph 1003.9mb 41f
3:18 14 21 mph 1004mb 41f
3:12 11 20 mph 1003.5mb 42f
3:06 10 20 mph 1003.1mb 42f
3:00 10 17 mph 1002.8mb 42f
2:54 10 21 mph 1003mb 42f
2:48 6 16 mph 1002.9mb 43f
2:42 8 14 mph 1002.8mb 43f
2:36 11 20 mph 1002.7mb 43f
2:30 8 16 mph 1002.6mb 43f
2:24 10 25 mph 1002.3mb 43f
2:18 10 23 mph 1002.3mb 43f
2:12 13 24 mph 1002.4mb 43f
2:06 10 21 mph 1002.4mb 44f
2:00 8 17 mph 1002.2mb 44f
1:54 9 17 mph 1001.9mb 44f
1:48 7 21 mph 1001.5mb 44f
1:42 8 14 mph 1000.8mb 44f
1:36 7 15 mph 1000.3mb 44f
1:30 9 20 mph 1001.3mb 44f
1:24 6 11 mph 1001.5mb 44f
1:18 8 17 mph 1001.1mb 44f
1:12 11 20 mph 1001mb 44f
1:06 9 17 mph 1001.2mb 44f
1:00 6 13 mph 1000.8mb 45f
12:54 9 17 mph 1000.2mb 44f
12:48 7 15 mph 999.7mb 45f
12:42 9 20 mph 1000.2mb 45f
12:36 8 18 mph 1000.1mb 45f
12:30 14 29 mph 1000.1mb 46f
12:24 7 14 mph 1000.2mb 46f
12:18 7 11 mph 1000.2mb 46f
12:12 6 11 mph 999.8mb 47f
12:06 6 11 mph 999.5mb 47f
12:00 5 7 mph 999.3mb 47f
sam. 02/25 11:54 7 9 mph 998.3mb 47f
11:48 6 9 mph - -
11:42 5 11 mph 998.7mb 48f
11:36 3 7 mph 999.1mb 48f
11:30 6 14 mph 999.2mb 48f
11:24 8 18 mph 999.5mb 47f
11:18 10 18 mph 999.8mb 47f
11:12 9 18 mph 999.8mb 47f
11:06 13 25 mph 999.6mb 48f
11:00 5 6 mph 999.6mb 48f
10:54 1 3 mph 998.9mb 47f
10:48 1 2 mph 998.4mb 49f
10:42 6 9 mph 998.6mb 49f
10:36 7 10 mph 999.5mb 49f
10:30 8 13 mph 999.6mb 48f
10:24 8 13 mph 999.7mb 50f
10:18 8 11 mph - -
10:12 5 8 mph 999.5mb 49f
10:06 7 10 mph 999.2mb 48f
10:00 7 13 mph 999.4mb 48f
9:54 6 10 mph 999.5mb 48f
9:48 7 10 mph - -
9:42 6 9 mph 999.7mb 47f
9:36 6 10 mph 999.8mb 47f
9:30 6 10 mph 999.5mb 47f
9:24 7 13 mph 999.5mb 47f
9:18 7 13 mph 999.5mb 46f
9:12 6 9 mph 999.6mb 46f
9:06 7 13 mph 999.4mb 46f
9:00 8 14 mph 999.5mb 46f
8:54 7 14 mph 999.4mb 46f
8:48 7 11 mph - -
8:42 7 11 mph 999.4mb 46f
8:36 7 13 mph 999.3mb 46f
8:30 7 14 mph 999.1mb 47f
8:24 7 13 mph 999.1mb 47f
8:18 7 13 mph 999.2mb 47f
8:12 7 14 mph 999.4mb 47f
8:06 7 13 mph 999.6mb 47f
8:00 6 10 mph 999.7mb 46f
7:54 6 9 mph 999.8mb 46f
7:48 6 10 mph 1000mb -
7:42 7 10 mph 1000.2mb 47f
7:36 7 10 mph 1000.3mb 47f
7:30 7 10 mph 1000.4mb 47f
7:24 8 13 mph 1000.3mb 47f
7:18 8 14 mph 1000.4mb 47f
7:12 8 11 mph 1000.5mb 47f
7:06 7 10 mph 1000.5mb 47f
7:00 7 11 mph 1000.4mb 47f
6:54 7 10 mph 1000.4mb 47f
6:48 6 8 mph 1000.6mb -
6:42 5 9 mph 1000.5mb 49f
6:36 6 10 mph 1000.6mb 51f
6:30 5 9 mph 1000.6mb 52f
6:24 6 11 mph 1000.4mb 52f
6:18 6 10 mph 1000.6mb -
6:12 6 13 mph 1000.5mb 53f
6:06 5 11 mph 1000.5mb 53f
6:00 6 14 mph 1000.4mb 53f
5:54 8 14 mph 1000mb 54f
5:48 7 14 mph 1000mb -
5:42 6 11 mph 1000.1mb 54f
5:36 8 18 mph 1000.1mb 54f
5:30 7 14 mph 1000.4mb 54f
5:24 6 13 mph 1000.7mb 54f
5:18 7 14 mph 1000.9mb 54f
5:12 7 15 mph 1001mb 55f
5:06 6 11 mph 1001.2mb 55f
5:00 6 15 mph 1001.3mb 55f
4:54 6 11 mph 1001.3mb 55f
4:48 6 15 mph 1001.5mb -
4:42 6 11 mph 1001.6mb 55f
4:36 5 10 mph 1001.7mb 56f
4:30 6 13 mph 1002mb 56f
4:24 7 14 mph 1002.1mb 56f
4:18 6 13 mph 1002.2mb 56f
4:12 5 11 mph 1002.3mb 56f
4:06 7 15 mph 1002.4mb 56f
4:00 6 13 mph 1002.6mb 56f
3:54 8 15 mph 1002.9mb 56f
3:48 7 15 mph 1002.9mb 56f
3:42 9 21 mph 1003.1mb 56f
3:36 7 15 mph 1003.4mb 57f
3:30 7 14 mph 1003.6mb 58f
3:24 8 15 mph 1003.7mb 59f
3:18 5 14 mph 1004mb 59f
3:12 6 9 mph 1004.2mb 57f
3:06 6 10 mph 1004.3mb 55f
3:00 7 13 mph 1004.5mb 53f
2:54 8 13 mph 1004.7mb 54f
2:48 7 14 mph 1004.8mb 55f
2:42 7 13 mph 1005mb 55f
2:36 6 13 mph 1005.1mb 56f
2:30 5 9 mph 1005.1mb 56f
2:24 6 13 mph 1005.2mb 55f
2:18 7 14 mph 1005.4mb 54f
2:12 7 10 mph 1005.6mb 54f
2:06 7 11 mph 1005.7mb 54f
2:00 8 13 mph 1005.7mb 54f
1:54 9 15 mph 1005.8mb 53f
1:48 8 11 mph 1005.9mb 54f
1:42 7 14 mph 1005.9mb 54f
1:36 7 13 mph 1006mb 55f
1:30 8 11 mph 1006.1mb 55f
1:24 9 14 mph 1006.2mb 55f
1:18 9 14 mph 1006.3mb 55f
1:12 9 11 mph 1006.5mb 55f
1:06 8 13 mph 1006.7mb 55f
1:00 8 13 mph 1006.7mb 56f
12:54 7 13 mph 1006.7mb 56f
12:48 7 11 mph - -
12:42 6 10 mph 1006.8mb 56f
12:36 7 13 mph 1007mb 56f
12:30 6 11 mph 1007mb 58f
12:24 7 11 mph 1007.1mb 58f
12:18 7 13 mph 1007.3mb 59f
12:12 6 14 mph 1007.5mb 57f
12:06 8 14 mph 1007.5mb 58f
12:00 7 14 mph 1007.6mb 56f
11:54 7 13 mph 1007.7mb 58f
11:48 7 10 mph 1007.8mb 58f
11:42 8 13 mph 1008mb 58f
11:36 7 13 mph 1008.2mb 57f
11:30 7 11 mph 1008.3mb 58f
11:24 7 13 mph 1008.5mb 57f
11:18 8 15 mph 1008.6mb 57f
11:12 7 11 mph 1008.7mb 56f
11:06 7 10 mph 1008.8mb 56f
11:00 7 10 mph 1008.9mb 54f
10:54 7 10 mph 1009.1mb 55f
10:48 7 14 mph - -
10:42 6 10 mph 1009.2mb 55f
10:36 7 11 mph 1009.3mb 56f
10:30 6 10 mph 1009.4mb 57f
10:24 5 8 mph 1009.6mb 56f
10:18 5 8 mph 1009.5mb 58f
10:12 2 6 mph 1009.6mb 57f
10:06 2 7 mph 1009.8mb 57f
10:00 2 6 mph 1009.9mb 57f
9:54 2 6 mph 1009.9mb 55f
9:48 3 7 mph 1010mb 55f
9:42 2 5 mph 1010.1mb 54f
9:36 2 5 mph 1010.3mb 53f
9:30 2 3 mph 1010.4mb 51f
9:24 1 3 mph 1010.5mb 51f
9:18 1 5 mph - -
9:12 2 6 mph 1010.9mb 52f
9:06 1 3 mph 1011mb 51f
9:00 3 6 mph 1011.1mb 51f
8:54 2 5 mph 1011.1mb 51f
8:48 2 5 mph 1011.1mb 51f
8:42  -  3 mph 1011.2mb 51f
8:36  -  1 mph 1011.3mb 50f
8:30 1
mph
1011.4mb 48f
8:24  -  2 mph 1011.6mb 49f
8:18 1 3 mph 1011.6mb 49f
8:12 2 5 mph 1011.6mb 49f
8:06 1 3 mph 1011.7mb 49f
8:00 2 5 mph 1011.8mb 49f
7:54 2 5 mph 1011.8mb 48f
7:48 2 5 mph - -
7:42 3 5 mph 1011.9mb 48f
7:36 3 6 mph 1011.9mb 48f
7:30 3 6 mph 1012mb 48f
7:24 3 6 mph 1012mb 48f
7:18 3 7 mph 1012mb 48f
7:12 6 7 mph 1012.1mb 48f
7:06 5 8 mph 1012mb 48f
7:00 5 7 mph 1011.9mb 47f
6:54 3 7 mph 1011.7mb 47f
6:48 3 6 mph 1011.6mb 47f
6:42 5 7 mph 1011.5mb 47f
6:36 3 8 mph 1011.5mb 47f
6:30 2 6 mph 1011.5mb 47f
6:24 2 6 mph 1011.4mb 47f
6:18 2 5 mph 1011.5mb 48f
6:12 2 5 mph 1011.4mb 48f
6:06 3 6 mph 1011.5mb 48f
6:00 3 6 mph 1011.5mb 49f
5:54 5 9 mph 1011.6mb 49f
5:48 5 10 mph 1011.6mb 49f
5:42 3 7 mph 1011.5mb 48f
5:36 3 7 mph 1011.5mb 48f
5:30 3 6 mph 1011.6mb 48f
5:24 3 6 mph 1011.7mb 47f
5:18 2 5 mph 1011.7mb 48f
5:12 1 2 mph 1011.8mb 48f
5:06 2 5 mph 1011.8mb 48f
5:00 2 6 mph 1011.9mb 48f
4:54 3 7 mph 1011.9mb 48f
4:48 2 5 mph 1011.9mb 47f
4:42 3 7 mph 1011.9mb 47f
4:36 3 6 mph 1012mb 47f
4:30 3 5 mph 1012mb 47f
4:24 3 6 mph 1012mb 48f
4:18 3 6 mph 1012.1mb 48f
4:12 2 6 mph 1012.1mb 48f
4:06 3 8 mph 1012.1mb 49f
4:00 3 6 mph 1012.1mb 49f
3:54 3 6 mph 1012.1mb 49f
3:48 3 6 mph - -
3:42 5 8 mph 1012.1mb 50f
3:36 5 7 mph 1012.2mb 50f
3:30 5 8 mph 1012.2mb 50f
3:24 3 8 mph 1012.1mb 50f
3:18 5 9 mph 1012.2mb 50f
3:12 5 8 mph 1012.2mb 50f
3:06 5 8 mph 1012.2mb 49f
3:00 5 9 mph 1012.2mb 50f
2:54 5 9 mph 1012.2mb 50f
2:48 3 7 mph 1012.2mb 49f
2:42 6 9 mph 1012.2mb 49f
2:36 5 10 mph 1012.4mb 49f
2:30 5 9 mph 1012.4mb 50f
2:24 5 7 mph 1012.5mb 50f
2:18 5 8 mph 1012.6mb 49f
2:12 3 7 mph 1012.6mb 49f
2:06 5 9 mph 1012.6mb 49f
2:00 6 10 mph 1012.7mb 49f
1:54 3 8 mph 1012.7mb 49f
1:48 5 9 mph 1012.7mb -
1:42 5 9 mph 1012.7mb -
1:36 5 8 mph 1012.7mb -
1:30 5 10 mph 1012.7mb 49f
1:24 6 10 mph 1012.7mb 50f
1:18 5 9 mph 1012.6mb 50f
1:12 6 11 mph 1012.6mb 50f
1:06 6 10 mph 1012.6mb 50f
1:00 6 9 mph 1012.7mb 50f
12:54 5 9 mph 1012.6mb 50f
12:48 5 10 mph 1012.7mb 49f
12:42 3 8 mph 1012.7mb -
12:36 6 8 mph 1012.7mb -
12:30 6 10 mph 1012.8mb 49f
12:24 7 11 mph 1012.8mb 48f
12:18 5 9 mph 1012.9mb 48f
12:12 6 9 mph 1012.8mb 48f
12:06 3 6 mph 1012.8mb 48f
12:00 3 8 mph 1012.8mb 47f
ven. 02/24 11:54 5 7 mph 1012.9mb 48f
11:48 5 8 mph 1012.9mb 48f
11:42 5 9 mph 1012.9mb 49f
11:36 3 6 mph 1012.8mb 49f
11:30 5 7 mph 1012.9mb 49f
11:24 5 7 mph 1012.9mb 49f
11:18 3 6 mph 1013mb 49f
11:12 3 7 mph 1013.1mb 49f
11:06 3 6 mph 1013mb 49f
11:00 3 7 mph 1013.1mb 49f
10:54 3 6 mph 1013.1mb 48f
10:48 3 8 mph - -
10:42 3 8 mph 1013.2mb 48f
10:36 3 7 mph 1013.4mb 48f
10:30 3 7 mph 1013.4mb 48f
10:24 3 7 mph 1013.4mb 48f
10:18 2 6 mph 1013.5mb 48f
10:12 3 7 mph 1013.5mb 48f
10:06 2 7 mph 1013.6mb 49f
10:00 3 7 mph 1013.6mb 48f
9:54 3 6 mph 1013.6mb 48f
9:48 3 8 mph 1013.5mb 49f
9:42 2 6 mph 1013.4mb 49f
9:36 3 7 mph 1013.4mb 49f
9:30 3 7 mph 1013.4mb 49f
9:24 3 6 mph 1013.5mb 49f
9:18 5 8 mph - -
9:12 3 7 mph 1013.5mb 48f
9:06 5 8 mph 1013.6mb 49f
9:00 5 8 mph 1013.5mb 49f
8:54 3 6 mph 1013.5mb 49f
8:48 3 7 mph 1013.6mb -
8:42 3 6 mph 1013.6mb 49f
8:36 3 7 mph 1013.7mb 49f
8:30 5 8 mph 1013.8mb 49f
8:24 5 7 mph 1013.9mb 49f
8:18 3 7 mph - -
8:12 5 7 mph 1014mb 49f
8:06 3 7 mph 1013.9mb 49f
8:00 3 6 mph 1013.9mb 49f
7:54 3 8 mph 1013.9mb 49f
7:48 3 8 mph 1014mb -
7:42 3 7 mph 1013.9mb 48f
7:36 3 6 mph 1014mb 48f
7:30 3 7 mph 1014mb 48f
7:24 5 7 mph 1014.1mb 48f
7:18 3 7 mph 1014.1mb 48f
7:12 3 7 mph 1014.1mb 48f
7:06 3 7 mph 1014.1mb 48f
7:00 3 8 mph 1014.1mb 48f
6:54 5 8 mph 1014mb 48f
6:48 3 7 mph - -
6:42 3 7 mph 1014mb 48f
6:36 3 8 mph 1014.1mb 48f
6:30 5 8 mph 1014.1mb 48f
6:24 5 8 mph 1014.1mb 48f
6:18 3 7 mph 1014.1mb 48f
6:12 6 11 mph 1014mb 48f
6:06 6 11 mph 1014mb 49f
6:00 6 11 mph 1014mb 49f
5:54 5 9 mph 1013.9mb 49f
5:48 6 11 mph 1013.9mb 50f
5:42 6 11 mph 1013.8mb 50f
5:36 7 11 mph 1013.8mb 50f
5:30 8 14 mph 1013.8mb 50f
5:24 8 14 mph 1013.8mb 50f
5:18 8 13 mph - -
5:12 6 13 mph 1013.6mb 51f
5:06 7 15 mph 1013.6mb 51f
5:00 6 11 mph 1013.5mb 52f
4:54 6 15 mph 1013.5mb 52f
4:48 8 14 mph 1013.5mb 52f
4:42 7 14 mph 1013.5mb 52f
4:36 7 15 mph 1013.6mb 53f
4:30 8 15 mph 1013.6mb 53f
4:24 7 14 mph 1013.4mb 54f
4:18 8 14 mph - -
4:12 7 14 mph 1013.3mb 55f
4:06 6 13 mph 1013.2mb 55f
4:00 7 14 mph 1013.3mb 55f
3:54 7 14 mph 1013.3mb 55f
3:48 8 16 mph 1013.3mb 56f
3:42 7 16 mph 1013.3mb 56f
3:36 7 14 mph 1013.5mb 57f
3:30 7 14 mph 1013.5mb 57f
3:24 7 14 mph 1013.5mb 57f
3:18 7 14 mph 1013.6mb 58f
3:12 7 14 mph 1013.6mb 58f
3:06 9 16 mph 1013.6mb 58f
3:00 7 18 mph 1013.6mb 58f
2:54 7 14 mph 1013.5mb 59f
2:48 8 15 mph 1013.5mb 58f
2:42 9 14 mph 1013.6mb 58f
2:36 9 15 mph 1013.6mb 60f
2:30 7 14 mph 1013.6mb 59f
2:24 9 15 mph 1013.7mb 60f
2:18 8 17 mph 1013.6mb 60f
2:12 8 13 mph 1013.6mb 60f
2:06 8 15 mph 1013.5mb 60f
2:00 9 15 mph 1013.6mb 60f
1:54 9 16 mph 1013.5mb 60f
1:48 9 16 mph 1013.6mb 59f
1:42 8 15 mph 1013.7mb 59f
1:36 8 15 mph 1013.7mb 59f
1:30 8 14 mph 1013.8mb 59f
1:24 8 17 mph 1013.8mb 60f
1:18 7 13 mph 1013.9mb 60f
1:12 6 11 mph 1014mb 59f
1:06 6 11 mph 1014.1mb 59f
1:00 8 16 mph 1014.2mb 59f
12:54 7 15 mph 1014.2mb 59f
12:48 8 15 mph 1014.3mb 59f
12:42 8 16 mph 1014.3mb 60f
12:36 6 15 mph 1014.3mb 60f
12:30 7 13 mph 1014.4mb 61f
12:24 7 14 mph 1014.4mb 62f
12:18 7 13 mph 1014.5mb 61f
12:12 6 13 mph 1014.6mb 60f
12:06 7 14 mph 1014.7mb 59f
12:00 5 10 mph 1014.8mb 59f
11:54 6 9 mph 1015mb 60f
11:48 6 11 mph 1015.1mb 60f
11:42 6 11 mph 1015.2mb 61f
11:36 7 14 mph 1015.2mb 62f
11:30 8 14 mph 1015.3mb 60f
11:24 8 15 mph 1015.4mb 59f
11:18 8 14 mph 1015.5mb 59f
11:12 9 15 mph 1015.5mb 59f
11:06 8 15 mph 1015.6mb 58f
11:00 7 13 mph 1015.6mb 59f
10:54 7 13 mph 1015.6mb 59f
10:48 7 13 mph 1015.6mb 58f
10:42 7 13 mph 1015.6mb 58f
10:36 8 14 mph 1015.6mb 58f
10:30 7 11 mph 1015.7mb 57f
10:24 8 14 mph 1015.7mb 56f
10:12 7 10 mph 1015.7mb 55f
10:06 7 11 mph 1015.6mb 54f